Weather Top, Arizona (BMGR) Weather observations

Data are for 10 minute period ending at time listed.
 Day   Time   Solar   Ave.   Ave.  Ave.  Vector  Max.   Total    
  of    of     Rad.   Air    Rel.  Wind   Wind   Wind  Precip.   
Year   Day            Temp.  Hum.  Speed  Dir.   Gust            
2026   (MST)  Kw/m2    F      %     mph   deg.    mph    in.     
-----------------------------------------------------------------
 246    0:00   0.00   80.7    61    5.5   190    11.0    0.00 
 246    0:05   0.00   80.6    62    4.9   175     9.9    0.00 
 246    0:10   0.00   80.3    62    4.8   145     7.7    0.00 
 246    0:15   0.00   80.1    63    5.6   137     8.8    0.00 
 246    0:20   0.00   80.0    62    6.5   126     8.8    0.00 
 246    0:25   0.00   80.2    60    5.5   135     9.9    0.00 
 246    0:30   0.00   80.0    59    4.0   137     7.7    0.00 
 246    0:35   0.00   79.5    59    5.2   131     8.8    0.00 
 246    0:40   0.00   79.0    61    6.3   132     9.9    0.00 
 246    0:45   0.00   78.7    61    6.0   125     9.9    0.00 
 246    0:50   0.00   78.6    62    6.0   120     9.9    0.00 
 246    0:55   0.00   78.1    63    5.5   117     8.8    0.00 
 246    1:00   0.00   78.0    63    6.4   112     8.8    0.00 
 246    1:05   0.00   78.2    62    5.8   113     8.8    0.00 
 246    1:10   0.00   78.2    62    5.1   104     7.7    0.00 
 246    1:15   0.00   78.0    63    5.4   111     8.8    0.00 
 246    1:20   0.00   78.1    63    5.1   115     7.1    0.00 
 246    1:25   0.00   78.3    62    5.5   117     7.7    0.00 
 246    1:30   0.00   77.7    64    5.2   108     7.1    0.00 
 246    1:35   0.00   77.7    63    5.9   113     8.2    0.00 
 246    1:40   0.00   78.0    63    7.1   116     9.3    0.00 
 246    1:45   0.00   78.2    62    7.0   118     8.8    0.00 
 246    1:50   0.00   78.1    62    6.3   129     9.3    0.00 
 246    1:55   0.00   78.0    62    5.2   126     7.7    0.00 
 246    2:00   0.00   77.6    63    5.3   131     7.7    0.00 
 246    2:05   0.00   77.0    64    4.4   126     5.4    0.00 
 246    2:10   0.00   76.9    64    3.7   124     7.1    0.00 
 246    2:15   0.00   77.1    63    3.5   141     6.0    0.00 
 246    2:20   0.00   77.1    63    2.5   142     4.3    0.00 
 246    2:25   0.00   77.0    64    2.1   137     3.8    0.00 
 246    2:30   0.00   76.7    64    1.3   155     3.2    0.00 
 246    2:35   0.00   77.0    64    2.5   148     4.9    0.00 
 246    2:40   0.00   77.4    63    3.8   195     7.7    0.00 
 246    2:45   0.00   77.6    63    3.4   201     6.5    0.00 
 246    2:50   0.00   77.5    63    4.0   201     5.4    0.00 
 246    2:55   0.00   77.8    63    5.1   202     7.7    0.00 
 246    3:00   0.00   77.9    63    5.8   203     8.8    0.00 
 246    3:05   0.00   77.9    64    6.4   200     9.9    0.00 
 246    3:10   0.00   77.8    64    6.0   215     9.3    0.00 
 246    3:15   0.00   77.8    64    5.9   224    13.3    0.00 
 246    3:20   0.00   77.7    65    5.7   228     9.9    0.00 
 246    3:25   0.00   77.5    65    4.7   232     8.2    0.00 
 246    3:30   0.00   77.1    66    3.9   236     6.5    0.00 
 246    3:35   0.00   76.8    67    4.7   225     9.3    0.00 
 246    3:40   0.00   77.1    67    5.6   216     9.3    0.00 
 246    3:45   0.00   77.2    67    7.9   212    11.6    0.00 
 246    3:50   0.00   77.3    67    7.1   214    10.5    0.00 
 246    3:55   0.00   77.3    67    8.1   219    13.3    0.00 
 246    4:00   0.00   77.4    66    6.4   219    13.3    0.00 
 246    4:05   0.00   77.3    67    5.3   206     8.8    0.00 
 246    4:10   0.00   76.7    67    2.6   163     6.5    0.00 
 246    4:15   0.00   76.1    68    2.3   121     4.3    0.00 
 246    4:20   0.00   75.9    68    2.2   111     4.3    0.00 
 246    4:25   0.00   75.9    68    1.8   157     4.3    0.00 
 246    4:30   0.00   76.3    68    4.0   186     7.1    0.00 
 246    4:35   0.00   76.4    67    3.3   158     4.9    0.00 
 246    4:40   0.00   76.0    68    2.8   145     4.9    0.00 
 246    4:45   0.00   76.1    68    3.0   157     5.4    0.00 
 246    4:50   0.00   76.2    67    2.6   148     4.9    0.00 
 246    4:55   0.00   76.1    68    3.7   154     5.4    0.00 
 246    5:00   0.00   76.2    68    3.8   145     5.4    0.00 
 246    5:05   0.00   76.2    68    5.1   124     7.1    0.00 
 246    5:10   0.00   76.0    68    5.5   120     7.7    0.00 
 246    5:15   0.00   75.7    69    5.1   126     7.7    0.00 
 246    5:20   0.00   75.4    69    5.5   122     8.2    0.00 
 246    5:25   0.00   75.2    70    5.9   116     8.8    0.00 
 246    5:30   0.00   75.2    70    5.6   129     8.2    0.00 
 246    5:35   0.00   75.1    70    5.0   126     7.1    0.00 
 246    5:40   0.00   75.2    70    5.5   126     9.3    0.00 
 246    5:45   0.00   75.0    70    5.5   120     9.9    0.00 
 246    5:50   0.00   74.9    70    5.9   120     8.8    0.00 
 246    5:55   0.00   75.3    70    6.9   122     9.3    0.00 
 246    6:00   0.00   75.1    70    7.4   119     9.9    0.00 
 246    6:05   0.00   74.7    71    7.4   119    10.5    0.00 
 246    6:10   0.00   74.6    71    7.1   110     9.9    0.00 
 246    6:15   0.01   74.2    72    6.4   104     9.9    0.00 
 246    6:20   0.01   74.2    72    6.7   105     9.3    0.00 
 246    6:25   0.02   74.4    72    7.8   106    11.6    0.00 
 246    6:30   0.04   74.6    72    7.1    92     9.9    0.00 
 246    6:35   0.06   74.7    72    6.8   103     8.2    0.00 
 246    6:40   0.07   75.0    71    7.6   110     9.9    0.00 
 246    6:45   0.08   75.3    70    7.6   116    10.5    0.00 
 246    6:50   0.10   75.2    71    8.2   116    10.5    0.00 
 246    6:55   0.11   75.5    70    8.4   115    10.5    0.00 
 246    7:00   0.13   75.9    69    7.4   118     9.9    0.00 
 246    7:05   0.14   76.2    68    7.5   118    11.6    0.00 
 246    7:10   0.16   76.8    67    8.8   120    11.0    0.00 
 246    7:15   0.17   77.2    66    7.5   124    10.5    0.00 
 246    7:20   0.19   77.8    64    7.1   129     9.9    0.00 
 246    7:25   0.21   78.3    63    6.8   131     9.3    0.00 
 246    7:30   0.22   78.7    62    8.1   120    12.1    0.00 
 246    7:35   0.24   78.9    62    7.7   126    11.6    0.00 
 246    7:40   0.26   79.3    61    7.4   124    11.0    0.00 
 246    7:45   0.27   79.8    60    6.2   130     9.9    0.00 
 246    7:50   0.29   80.2    59    5.8   143    11.6    0.00 
 246    7:55   0.31   80.3    59    6.2   137     9.3    0.00 
 246    8:00   0.33   80.8    58    4.9   136     8.8    0.00 
 246    8:05   0.34   80.8    58    5.6   136     9.3    0.00 
 246    8:10   0.36   80.9    58    6.0   133     9.3    0.00 
 246    8:15   0.38   81.0    58    6.0   132     9.3    0.00 
 246    8:20   0.39   80.8    58    6.2   126     8.8    0.00 
 246    8:25   0.41   81.1    58    6.6   128     9.3    0.00 
 246    8:30   0.43   81.7    57    5.5   134     9.9    0.00 
 246    8:35   0.44   82.0    56    5.8   145     9.9    0.00 
 246    8:40   0.46   82.8    54    4.6   185    11.6    0.00 
 246    8:45   0.47   83.0    52    6.8   187    10.5    0.00 
 246    8:50   0.49   83.4    52    7.5   177    12.7    0.00 
 246    8:55   0.50   83.3    52    6.0   183    16.6    0.00 
 246    9:00   0.52   83.3    52    4.7   199    10.5    0.00 
 246    9:05   0.53   83.7    51    6.2   183    11.6    0.00 
 246    9:10   0.55   84.2    50    3.7   212     9.3    0.00 
 246    9:15   0.56   83.7    51    6.3   198    11.0    0.00 
 246    9:20   0.58   84.2    50    5.6   199    11.6    0.00 
 246    9:25   0.59   84.4    50    8.1   173    12.1    0.00 
 246    9:30   0.61   84.8    49    6.1   191    10.5    0.00 
 246    9:35   0.62   84.4    49    7.6   197    12.1    0.00 
 246    9:40   0.63   84.4    49    6.3   214    11.6    0.00 
 246    9:45   0.65   84.4    49    8.1   208    13.3    0.00 
 246    9:50   0.66   85.0    48    5.6   197    13.8    0.00 
 246    9:55   0.67   85.6    47    7.9   171    13.3    0.00 
 246   10:00   0.68   85.9    46    6.7   185    11.6    0.00 
 246   10:05   0.69   85.9    46    6.8   192    11.6    0.00 
 246   10:10   0.70   86.3    45    6.4   190    10.5    0.00 
 246   10:15   0.71   85.6    45    5.7   209    12.1    0.00 
 246   10:20   0.72   87.0    45    5.5   161    10.5    0.00 
 246   10:25   0.74   87.2    45    6.3   169    11.6    0.00 
 246   10:30   0.75   86.7    46    5.5   132     9.9    0.00 
 246   10:35   0.75   86.9    46    3.4   159     6.0    0.00 
 246   10:40   0.77   87.8    43    5.7   191    11.0    0.00 
 246   10:45   0.78   87.5    44    4.9   185     9.3    0.00 
 246   10:50   0.79   87.2    45    4.7   156    11.0    0.00 
 246   10:55   0.81   88.2    44    4.6   179     8.2    0.00 
 246   11:00   0.67   87.8    42    4.7   242     8.8    0.00 
 246   11:05   0.42   87.6    41    2.3   208     5.4    0.00 
 246   11:10   0.46   88.1    41    4.3   183     7.1    0.00 
 246   11:15   0.70   88.6    41    5.2   175    13.3    0.00 
 246   11:20   0.90   88.9    40    6.8   194    11.6    0.00 
 246   11:25   0.65   88.1    41    2.8   234     9.3    0.00 
 246   11:30   0.83   89.1    39    3.3   206     8.8    0.00 
 246   11:35   0.39   90.3    36    6.4   235    10.5    0.00 
 246   11:40   0.79   89.0    39    5.3   204     9.9    0.00 
 246   11:45   0.84   90.8    37    3.9   160    11.0    0.00 
 246   11:50   0.82   90.3    38    2.5   342     7.1    0.00 
 246   11:55   0.99   91.4    36    5.7   192    10.5    0.00 
 246   12:00   0.75   90.9    36    6.6   196    10.5    0.00 
 246   12:05   0.56   89.4    37    2.9   184     8.8    0.00 
 246   12:10   0.99   91.9    37    4.1   193     9.9    0.00 
 246   12:15   0.74   93.1    35    5.7   206    11.0    0.00 
 246   12:20   0.95   91.8    37    3.2   210     9.3    0.00 
 246   12:25   0.98   92.1    36    2.7   195     7.1    0.00 
 246   12:30   0.97   94.2    34    6.2   159    11.0    0.00 
 246   12:35   0.32   92.5    35    2.9   184     7.1    0.00 
 246   12:40   0.70   91.5    36    2.3   233     6.0    0.00 
 246   12:45   0.93   92.2    35    6.2   185    11.6    0.00 
 246   12:50   0.38   90.5    37    4.5   188    11.6    0.00 
 246   12:55   0.86   90.6    37    5.3   188    12.1    0.00 
 246   13:00   0.24   91.1    37    7.3   188    15.5    0.00 
 246   13:05   0.19   89.6    39    7.2   155    12.7    0.00 
 246   13:10   0.54   89.9    39    7.0   191    10.5    0.00 
 246   13:15   0.94   90.5    38    4.5   209    10.5    0.00 
 246   13:20   0.46   92.3    37    4.5   144     9.3    0.00 
 246   13:25   0.58   91.1    38    3.6   136    12.1    0.00 
 246   13:30   0.73   92.2    36    6.4   186    12.7    0.00 
 246   13:35   0.95   93.0    35    6.2   185    11.0    0.00 
 246   13:40   0.58   94.7    32    5.1   190     9.9    0.00 
 246   13:45   0.20   93.9    32    2.9   189     7.1    0.00 
 246   13:50   0.85   93.6    33    5.6   197    16.6    0.00 
 246   13:55   0.65   92.5    33    8.9   200    15.5    0.00 
 246   14:00   0.44   92.6    33    6.3   230    11.6    0.00 
 246   14:05   0.90   93.2    32    7.4   225    12.7    0.00 
 246   14:10   0.32   94.1    30    8.2   231    13.8    0.00 
 246   14:15   0.56   93.8    31    3.6   126    11.0    0.00 
 246   14:20   0.29   95.5    29    5.6   189    12.7    0.00 
 246   14:25   0.59   93.1    32    6.1   188    11.6    0.00 
 246   14:30   0.91   94.4    31    7.2   209    14.9    0.00 
 246   14:35   0.85   94.5    29    8.0   214    15.5    0.00 
 246   14:40   0.84   94.8    30    8.6   204    13.8    0.00 
 246   14:45   0.66   93.8    31    7.4   226    14.4    0.00 
 246   14:50   0.85   95.6    29    6.3   165    11.6    0.00 
 246   14:55   0.80   98.2    27    4.4    68     9.9    0.00 
 246   15:00   0.24   96.7    28    4.1   103     7.7    0.00 
 246   15:05   0.77   96.3    29    4.6   100    11.6    0.00 
 246   15:10   0.72   96.6    26    8.0   219    16.0    0.00 
 246   15:15   0.10   94.4    29    9.6   223    14.9    0.00 
 246   15:20   0.70   93.2    31    6.4   221    11.6    0.00 
 246   15:25   0.69   96.1    28    5.3    66    10.5    0.00 
 246   15:30   0.66   96.6    26    6.9   138    16.6    0.00 
 246   15:35   0.56   95.6    27    8.8   234    15.5    0.00 
 246   15:40   0.59   96.2    26    5.9   218    11.6    0.00 
 246   15:45   0.59   96.5    26    8.0   190    14.9    0.00 
 246   15:50   0.58   96.9    25    8.1   227    15.5    0.00 
 246   15:55   0.41   96.7    24    5.3   137     8.8    0.00 
 246   16:00   0.13   94.9    27    8.3   230    14.9    0.00 
 246   16:05   0.49   93.9    27    9.8   231    15.5    0.00 
 246   16:10   0.52   94.1    29    7.6   227    16.6    0.00 
 246   16:15   0.34   95.2    29    8.7   217    18.9    0.00 
 246   16:20   0.17   93.2    30    8.0   233    13.3    0.00 
 246   16:25   0.45   93.6    30    4.7   193     8.8    0.00 
 246   16:30   0.27   95.4    28    5.4   171    11.6    0.00 
 246   16:35   0.08   94.1    30    9.3   223    16.6    0.00 
 246   16:40   0.41   92.9    31    8.5   212    13.3    0.00 
 246   16:45   0.23   94.0    30    8.5   200    14.4    0.00 
 246   16:50   0.18   92.8    30    8.8   213    19.4    0.00 
 246   16:55   0.16   93.2    28    8.4   212    14.4    0.00 
 246   17:00   0.06   92.3    31    7.5   214    14.4    0.00 
 246   17:05   0.12   91.4    33    8.8   207    13.8    0.00 
 246   17:10   0.14   92.0    33    8.5   224    13.8    0.00 
 246   17:15   0.17   91.8    33    7.4   206    15.5    0.00 
 246   17:20   0.11   91.4    34   10.3   212    17.7    0.00 
 246   17:25   0.10   91.4    34    6.4   202    10.5    0.00 
 246   17:30   0.11   91.7    31    7.3   213    13.3    0.00 
 246   17:35   0.24   92.8    28    8.5   196    17.2    0.00 
 246   17:40   0.23   93.2    31    7.7   193    13.8    0.00 
 246   17:45   0.23   93.0    32    7.2   200    15.5    0.00 
 246   17:50   0.23   92.2    34   12.3   206    21.6    0.00 
 246   17:55   0.22   92.3    34    8.9   198    16.6    0.00 
 246   18:00   0.19   92.3    33   10.2   214    17.2    0.00 
 246   18:05   0.15   92.1    34    8.7   208    15.5    0.00 
 246   18:10   0.13   91.7    34    9.4   214    17.2    0.00 
 246   18:15   0.12   91.4    35    9.0   205    15.5    0.00 
 246   18:20   0.10   91.6    35    7.2   206    12.1    0.00 
 246   18:25   0.07   91.9    33    9.9   217    17.2    0.00 
 246   18:30   0.05   91.3    33    9.3   237    16.0    0.00 
 246   18:35   0.04   90.8    33    8.6   234    14.9    0.00 
 246   18:40   0.03   90.7    34    5.8   209    11.0    0.00 
 246   18:45   0.02   90.2    35    9.7   229    18.3    0.00 
 246   18:50   0.01   89.7    35   10.8   232    15.5    0.00 
 246   18:55   0.01   89.6    35    7.6   225    13.3    0.00 
 246   19:00   0.00   89.3    35    9.7   234    14.4    0.00 
 246   19:05   0.00   89.1    35   10.1   230    16.0    0.00 
 246   19:10   0.00   88.9    35    9.9   232    16.6    0.00 
 246   19:15   0.00   88.7    35    5.6   211     9.3    0.00 
 246   19:20   0.00   88.5    36    7.6   224    14.4    0.00 
 246   19:25   0.00   88.3    36    9.2   225    13.3    0.00 
 246   19:30   0.00   88.2    36    7.7   226    11.6    0.00 
 246   19:35   0.00   88.1    36    6.9   231    11.6    0.00 
 246   19:40   0.00   87.9    36    7.8   228    11.6    0.00 
 246   19:45   0.00   87.8    36    7.3   230    11.0    0.00 
 246   19:50   0.00   87.5    37    7.4   223    11.6    0.00 
 246   19:55   0.00   87.3    38    7.2   228    13.3    0.00 
 246   20:00   0.00   87.2    38    6.1   219    10.5    0.00 
 246   20:05   0.00   87.1    39   10.1   215    16.0    0.00 
 246   20:10   0.00   87.0    39   11.1   213    19.4    0.00 
 246   20:15   0.00   86.8    39   12.0   216    18.9    0.00 
 246   20:20   0.00   86.7    39   10.0   218    16.0    0.00 
 246   20:25   0.00   86.5    39    9.0   214    17.7    0.00 
 246   20:30   0.00   86.3    39    9.8   217    18.9    0.00 
 246   20:35   0.00   86.2    39   10.3   211    16.0    0.00 
 246   20:40   0.00   86.0    39    8.9   215    15.5    0.00 
 246   20:45   0.00   85.9    39    8.1   209    14.9    0.00 
 246   20:50   0.00   85.8    39    7.4   210    12.7    0.00 
 246   20:55   0.00   85.6    40    7.7   218    17.2    0.00 
 246   21:00   0.00   85.5    41    8.1   212    12.7    0.00 
 246   21:05   0.00   85.3    41    7.5   217    12.7    0.00 
 246   21:10   0.00   85.2    41    7.4   213    12.1    0.00 
 246   21:15   0.00   85.1    42    9.3   208    15.5    0.00 
 246   21:20   0.00   84.9    42    7.9   213    12.1    0.00 
 246   21:25   0.00   84.9    41    7.3   203    15.5    0.00 
 246   21:30   0.00   85.0    41   10.2   204    16.6    0.00 
 246   21:35   0.00   84.9    41    8.9   206    16.0    0.00 
 246   21:40   0.00   84.7    42    8.9   202    13.8    0.00 
 246   21:45   0.00   84.6    42    7.3   197    13.3    0.00 
 246   21:50   0.00   84.5    43    8.0   201    13.8    0.00 
 246   21:55   0.00   84.3    43    8.1   200    15.5    0.00 
 246   22:00   0.00   84.3    44    8.3   208    15.5    0.00 
 246   22:05   0.00   84.2    44    8.3   214    13.8    0.00 
 246   22:10   0.00   84.1    44    7.7   210    12.7    0.00 
 246   22:15   0.00   84.0    45    8.8   212    15.5    0.00 
 246   22:20   0.00   84.0    45    8.3   214    13.3    0.00 
 246   22:25   0.00   83.8    46    8.3   216    14.4    0.00 
 246   22:30   0.00   83.8    46    8.9   209    16.6    0.00 
 246   22:35   0.00   83.7    46    8.7   214    14.4    0.00 
 246   22:40   0.00   83.5    46    7.6   210    12.1    0.00 
 246   22:45   0.00   83.4    47    8.9   198    14.4    0.00 
 246   22:50   0.00   83.2    47    7.8   192    14.4    0.00 
 246   22:55   0.00   83.0    47    7.5   192    12.1    0.00 
 246   23:00   0.00   82.7    48    6.2   176    10.5    0.00 
 246   23:05   0.00   81.1    52    6.7   125     9.9    0.00 
 246   23:10   0.00   80.6    53    6.5   130    11.6    0.00 
 246   23:15   0.00   80.7    53    6.2   130    11.0    0.00 
 246   23:20   0.00   80.4    54    7.6   126    12.7    0.00 
 246   23:25   0.00   80.2    55    5.7   151    11.0    0.00 
 246   23:30   0.00   80.4    54    6.8   154    13.8    0.00 

Return to Weather Top graphs page.


Western Regional Climate Center,wrcc@dri.edu